sensor_id;sensor_type;location;lat;lon;timestamp;temperature;humidity
65406;DHT22;52016;51.228;-2.322;2022-08-16T00:01:34;21.80;59.40
65406;DHT22;52016;51.228;-2.322;2022-08-16T00:05:23;21.80;59.70
65406;DHT22;52016;51.228;-2.322;2022-08-16T00:09:08;21.90;59.70
65406;DHT22;52016;51.228;-2.322;2022-08-16T00:12:51;21.90;59.60
65406;DHT22;52016;51.228;-2.322;2022-08-16T00:16:35;21.80;59.70
65406;DHT22;52016;51.228;-2.322;2022-08-16T00:20:39;21.90;59.80
65406;DHT22;52016;51.228;-2.322;2022-08-16T00:24:25;21.80;59.80
65406;DHT22;52016;51.228;-2.322;2022-08-16T00:28:13;21.60;60.40
65406;DHT22;52016;51.228;-2.322;2022-08-16T00:31:56;21.60;60.50
65406;DHT22;52016;51.228;-2.322;2022-08-16T00:35:42;21.50;60.60
65406;DHT22;52016;51.228;-2.322;2022-08-16T00:39:23;21.40;60.60
65406;DHT22;52016;51.228;-2.322;2022-08-16T00:43:19;21.40;60.80
65406;DHT22;52016;51.228;-2.322;2022-08-16T00:47:05;21.40;63.00
65406;DHT22;52016;51.228;-2.322;2022-08-16T00:50:49;21.30;61.10
65406;DHT22;52016;51.228;-2.322;2022-08-16T00:54:36;21.30;61.20
65406;DHT22;52016;51.228;-2.322;2022-08-16T00:58:22;21.40;61.40
65406;DHT22;52016;51.228;-2.322;2022-08-16T01:02:15;21.40;62.10
65406;DHT22;52016;51.228;-2.322;2022-08-16T01:06:13;21.40;61.50
65406;DHT22;52016;51.228;-2.322;2022-08-16T01:10:15;21.40;61.50
65406;DHT22;52016;51.228;-2.322;2022-08-16T01:14:21;21.40;61.50
65406;DHT22;52016;51.228;-2.322;2022-08-16T01:18:13;21.30;63.00
65406;DHT22;52016;51.228;-2.322;2022-08-16T01:26:30;21.20;64.60
65406;DHT22;52016;51.228;-2.322;2022-08-16T01:30:33;21.20;62.30
65406;DHT22;52016;51.228;-2.322;2022-08-16T01:34:29;21.20;65.20
65406;DHT22;52016;51.228;-2.322;2022-08-16T01:38:33;21.20;62.60
65406;DHT22;52016;51.228;-2.322;2022-08-16T01:42:16;21.20;64.00
65406;DHT22;52016;51.228;-2.322;2022-08-16T01:46:02;21.10;62.70
65406;DHT22;52016;51.228;-2.322;2022-08-16T01:50:05;21.10;62.90
65406;DHT22;52016;51.228;-2.322;2022-08-16T01:54:07;21.10;63.00
65406;DHT22;52016;51.228;-2.322;2022-08-16T01:57:50;21.00;63.10
65406;DHT22;52016;51.228;-2.322;2022-08-16T02:01:36;21.10;63.30
65406;DHT22;52016;51.228;-2.322;2022-08-16T02:05:19;21.10;63.30
65406;DHT22;52016;51.228;-2.322;2022-08-16T02:09:05;21.10;63.40
65406;DHT22;52016;51.228;-2.322;2022-08-16T02:12:52;21.10;63.50
65406;DHT22;52016;51.228;-2.322;2022-08-16T02:16:41;21.10;63.50
65406;DHT22;52016;51.228;-2.322;2022-08-16T02:20:28;21.20;63.50
65406;DHT22;52016;51.228;-2.322;2022-08-16T02:24:10;21.20;63.60
65406;DHT22;52016;51.228;-2.322;2022-08-16T02:28:12;21.20;63.70
65406;DHT22;52016;51.228;-2.322;2022-08-16T02:31:58;21.20;63.70
65406;DHT22;52016;51.228;-2.322;2022-08-16T02:35:45;21.20;63.80
65406;DHT22;52016;51.228;-2.322;2022-08-16T02:39:39;21.10;64.10
65406;DHT22;52016;51.228;-2.322;2022-08-16T02:43:28;21.00;64.40
65406;DHT22;52016;51.228;-2.322;2022-08-16T02:47:13;20.90;66.20
65406;DHT22;52016;51.228;-2.322;2022-08-16T02:51:07;20.90;65.20
65406;DHT22;52016;51.228;-2.322;2022-08-16T02:54:52;20.90;65.40
65406;DHT22;52016;51.228;-2.322;2022-08-16T02:58:36;20.90;65.60
65406;DHT22;52016;51.228;-2.322;2022-08-16T03:02:19;20.90;65.90
65406;DHT22;52016;51.228;-2.322;2022-08-16T03:06:13;21.00;66.00
65406;DHT22;52016;51.228;-2.322;2022-08-16T03:10:17;20.90;66.10
65406;DHT22;52016;51.228;-2.322;2022-08-16T03:14:00;20.90;66.30
65406;DHT22;52016;51.228;-2.322;2022-08-16T03:17:47;20.90;66.60
65406;DHT22;52016;51.228;-2.322;2022-08-16T03:21:34;20.90;68.30
65406;DHT22;52016;51.228;-2.322;2022-08-16T03:25:19;20.90;66.20
65406;DHT22;52016;51.228;-2.322;2022-08-16T03:29:03;20.80;66.40
65406;DHT22;52016;51.228;-2.322;2022-08-16T03:32:48;20.80;66.70
65406;DHT22;52016;51.228;-2.322;2022-08-16T03:36:32;20.80;66.80
65406;DHT22;52016;51.228;-2.322;2022-08-16T03:40:16;20.60;67.20
65406;DHT22;52016;51.228;-2.322;2022-08-16T03:44:13;20.60;67.60
65406;DHT22;52016;51.228;-2.322;2022-08-16T03:48:15;20.50;67.70
65406;DHT22;52016;51.228;-2.322;2022-08-16T03:52:00;20.40;67.80
65406;DHT22;52016;51.228;-2.322;2022-08-16T03:55:42;20.40;68.10
65406;DHT22;52016;51.228;-2.322;2022-08-16T03:59:26;20.30;68.30
65406;DHT22;52016;51.228;-2.322;2022-08-16T04:03:10;20.40;68.40
65406;DHT22;52016;51.228;-2.322;2022-08-16T04:06:52;20.40;68.30
65406;DHT22;52016;51.228;-2.322;2022-08-16T04:10:36;20.40;68.20
65406;DHT22;52016;51.228;-2.322;2022-08-16T04:14:18;20.40;68.20
65406;DHT22;52016;51.228;-2.322;2022-08-16T04:18:13;20.40;68.20
65406;DHT22;52016;51.228;-2.322;2022-08-16T04:21:56;20.40;68.30
65406;DHT22;52016;51.228;-2.322;2022-08-16T04:25:41;20.50;68.40
65406;DHT22;52016;51.228;-2.322;2022-08-16T04:29:27;20.50;68.40
65406;DHT22;52016;51.228;-2.322;2022-08-16T04:33:27;20.40;68.50
65406;DHT22;52016;51.228;-2.322;2022-08-16T04:37:09;20.50;68.60
65406;DHT22;52016;51.228;-2.322;2022-08-16T04:40:51;20.50;68.60
65406;DHT22;52016;51.228;-2.322;2022-08-16T04:44:34;20.50;68.60
65406;DHT22;52016;51.228;-2.322;2022-08-16T04:48:35;20.40;68.70
65406;DHT22;52016;51.228;-2.322;2022-08-16T04:52:19;20.40;68.70
65406;DHT22;52016;51.228;-2.322;2022-08-16T04:56:17;20.40;68.90
65406;DHT22;52016;51.228;-2.322;2022-08-16T05:00:00;20.40;69.00
65406;DHT22;52016;51.228;-2.322;2022-08-16T05:04:02;20.40;69.10
65406;DHT22;52016;51.228;-2.322;2022-08-16T05:08:00;20.40;69.00
65406;DHT22;52016;51.228;-2.322;2022-08-16T05:12:02;20.40;69.10
65406;DHT22;52016;51.228;-2.322;2022-08-16T05:15:46;20.40;69.20
65406;DHT22;52016;51.228;-2.322;2022-08-16T05:19:30;20.40;69.30
65406;DHT22;52016;51.228;-2.322;2022-08-16T05:23:17;20.40;69.40
65406;DHT22;52016;51.228;-2.322;2022-08-16T05:27:01;20.50;69.50
65406;DHT22;52016;51.228;-2.322;2022-08-16T05:30:52;20.50;69.60
65406;DHT22;52016;51.228;-2.322;2022-08-16T05:34:35;20.50;69.80
65406;DHT22;52016;51.228;-2.322;2022-08-16T05:38:17;20.50;69.80
65406;DHT22;52016;51.228;-2.322;2022-08-16T05:42:18;20.40;70.00
65406;DHT22;52016;51.228;-2.322;2022-08-16T05:46:00;20.40;70.00
65406;DHT22;52016;51.228;-2.322;2022-08-16T05:49:42;20.40;70.30
65406;DHT22;52016;51.228;-2.322;2022-08-16T05:53:24;20.40;70.30
65406;DHT22;52016;51.228;-2.322;2022-08-16T05:57:07;20.50;70.30
65406;DHT22;52016;51.228;-2.322;2022-08-16T06:00:54;20.50;70.30
65406;DHT22;52016;51.228;-2.322;2022-08-16T06:04:37;20.50;70.30
65406;DHT22;52016;51.228;-2.322;2022-08-16T06:08:25;20.50;70.40
65406;DHT22;52016;51.228;-2.322;2022-08-16T06:12:14;20.50;70.40
65406;DHT22;52016;51.228;-2.322;2022-08-16T06:16:09;20.60;70.50
65406;DHT22;52016;51.228;-2.322;2022-08-16T06:19:59;20.50;70.50
65406;DHT22;52016;51.228;-2.322;2022-08-16T06:23:41;20.50;70.60
65406;DHT22;52016;51.228;-2.322;2022-08-16T06:27:22;20.40;70.70
65406;DHT22;52016;51.228;-2.322;2022-08-16T06:31:07;20.40;70.80
65406;DHT22;52016;51.228;-2.322;2022-08-16T06:34:52;20.40;71.00
65406;DHT22;52016;51.228;-2.322;2022-08-16T06:38:42;20.40;71.10
65406;DHT22;52016;51.228;-2.322;2022-08-16T06:42:37;20.40;71.00
65406;DHT22;52016;51.228;-2.322;2022-08-16T06:46:32;20.40;71.00
65406;DHT22;52016;51.228;-2.322;2022-08-16T06:50:18;20.50;71.20
65406;DHT22;52016;51.228;-2.322;2022-08-16T06:54:09;20.50;71.00
65406;DHT22;52016;51.228;-2.322;2022-08-16T06:57:55;20.60;71.00
65406;DHT22;52016;51.228;-2.322;2022-08-16T07:01:37;20.60;70.90
65406;DHT22;52016;51.228;-2.322;2022-08-16T07:05:31;20.60;71.10
65406;DHT22;52016;51.228;-2.322;2022-08-16T07:09:22;20.60;71.20
65406;DHT22;52016;51.228;-2.322;2022-08-16T07:13:10;20.70;71.20
65406;DHT22;52016;51.228;-2.322;2022-08-16T07:17:00;20.70;71.10
65406;DHT22;52016;51.228;-2.322;2022-08-16T07:20:42;20.70;71.20
65406;DHT22;52016;51.228;-2.322;2022-08-16T07:24:29;20.70;71.10
65406;DHT22;52016;51.228;-2.322;2022-08-16T07:28:13;20.80;71.00
65406;DHT22;52016;51.228;-2.322;2022-08-16T07:32:01;20.80;70.90
65406;DHT22;52016;51.228;-2.322;2022-08-16T07:35:43;20.80;71.00
65406;DHT22;52016;51.228;-2.322;2022-08-16T07:39:30;20.80;71.20
65406;DHT22;52016;51.228;-2.322;2022-08-16T07:43:14;20.80;71.30
65406;DHT22;52016;51.228;-2.322;2022-08-16T07:46:56;20.90;71.40
65406;DHT22;52016;51.228;-2.322;2022-08-16T07:50:40;21.00;71.30
65406;DHT22;52016;51.228;-2.322;2022-08-16T07:54:39;21.00;71.30
65406;DHT22;52016;51.228;-2.322;2022-08-16T07:58:27;21.10;71.30
65406;DHT22;52016;51.228;-2.322;2022-08-16T08:02:17;21.20;71.40
65406;DHT22;52016;51.228;-2.322;2022-08-16T08:06:01;21.30;71.30
65406;DHT22;52016;51.228;-2.322;2022-08-16T08:09:44;21.40;71.30
65406;DHT22;52016;51.228;-2.322;2022-08-16T08:13:26;21.50;71.30
65406;DHT22;52016;51.228;-2.322;2022-08-16T08:17:23;21.60;71.30
65406;DHT22;52016;51.228;-2.322;2022-08-16T08:21:24;21.70;71.20
65406;DHT22;52016;51.228;-2.322;2022-08-16T08:25:27;21.70;71.10
65406;DHT22;52016;51.228;-2.322;2022-08-16T08:29:30;21.70;71.20
65406;DHT22;52016;51.228;-2.322;2022-08-16T08:33:20;21.70;71.10
65406;DHT22;52016;51.228;-2.322;2022-08-16T08:37:03;21.80;71.10
65406;DHT22;52016;51.228;-2.322;2022-08-16T08:40:46;21.80;71.00
65406;DHT22;52016;51.228;-2.322;2022-08-16T08:44:28;21.90;70.80
65406;DHT22;52016;51.228;-2.322;2022-08-16T08:48:11;21.90;70.80
65406;DHT22;52016;51.228;-2.322;2022-08-16T08:52:14;21.90;70.80
65406;DHT22;52016;51.228;-2.322;2022-08-16T08:56:16;21.90;70.80
65406;DHT22;52016;51.228;-2.322;2022-08-16T09:00:06;21.90;70.90
65406;DHT22;52016;51.228;-2.322;2022-08-16T09:03:54;21.90;71.00
65406;DHT22;52016;51.228;-2.322;2022-08-16T09:07:37;22.00;70.80
65406;DHT22;52016;51.228;-2.322;2022-08-16T09:11:39;22.10;70.70
65406;DHT22;52016;51.228;-2.322;2022-08-16T09:15:25;22.30;70.40
65406;DHT22;52016;51.228;-2.322;2022-08-16T09:19:13;22.30;70.30
65406;DHT22;52016;51.228;-2.322;2022-08-16T09:22:56;22.30;70.20
65406;DHT22;52016;51.228;-2.322;2022-08-16T09:26:39;22.40;70.00
65406;DHT22;52016;51.228;-2.322;2022-08-16T09:30:27;22.40;69.90
65406;DHT22;52016;51.228;-2.322;2022-08-16T09:34:16;22.50;69.70
65406;DHT22;52016;51.228;-2.322;2022-08-16T09:38:00;22.60;69.50
65406;DHT22;52016;51.228;-2.322;2022-08-16T09:41:43;22.60;69.30
65406;DHT22;52016;51.228;-2.322;2022-08-16T09:45:34;22.50;69.40
65406;DHT22;52016;51.228;-2.322;2022-08-16T09:49:19;22.50;69.40
65406;DHT22;52016;51.228;-2.322;2022-08-16T09:53:04;22.50;69.30
65406;DHT22;52016;51.228;-2.322;2022-08-16T09:56:47;22.50;69.50
65406;DHT22;52016;51.228;-2.322;2022-08-16T10:00:34;22.50;69.50
65406;DHT22;52016;51.228;-2.322;2022-08-16T10:04:26;22.40;69.70
65406;DHT22;52016;51.228;-2.322;2022-08-16T10:08:16;22.50;69.90
65406;DHT22;52016;51.228;-2.322;2022-08-16T10:12:07;22.60;70.00
65406;DHT22;52016;51.228;-2.322;2022-08-16T10:16:09;22.60;69.90
65406;DHT22;52016;51.228;-2.322;2022-08-16T10:19:55;22.70;69.90
65406;DHT22;52016;51.228;-2.322;2022-08-16T10:23:37;22.70;69.90
65406;DHT22;52016;51.228;-2.322;2022-08-16T10:27:19;22.70;69.90
65406;DHT22;52016;51.228;-2.322;2022-08-16T10:31:21;22.70;70.00
65406;DHT22;52016;51.228;-2.322;2022-08-16T10:35:23;22.70;70.10
65406;DHT22;52016;51.228;-2.322;2022-08-16T10:39:13;22.60;70.10
65406;DHT22;52016;51.228;-2.322;2022-08-16T10:42:56;22.60;70.30
65406;DHT22;52016;51.228;-2.322;2022-08-16T10:46:41;22.50;70.30
65406;DHT22;52016;51.228;-2.322;2022-08-16T10:50:26;22.60;70.40
65406;DHT22;52016;51.228;-2.322;2022-08-16T10:54:10;22.60;70.40
65406;DHT22;52016;51.228;-2.322;2022-08-16T10:58:12;22.70;70.30
65406;DHT22;52016;51.228;-2.322;2022-08-16T11:01:57;22.80;70.10
65406;DHT22;52016;51.228;-2.322;2022-08-16T11:06:01;22.80;70.10
65406;DHT22;52016;51.228;-2.322;2022-08-16T11:09:47;22.90;70.10
65406;DHT22;52016;51.228;-2.322;2022-08-16T11:13:29;23.00;70.10
65406;DHT22;52016;51.228;-2.322;2022-08-16T11:17:31;23.10;69.90
65406;DHT22;52016;51.228;-2.322;2022-08-16T11:21:14;23.00;69.90
65406;DHT22;52016;51.228;-2.322;2022-08-16T11:25:12;23.10;70.00
65406;DHT22;52016;51.228;-2.322;2022-08-16T11:29:14;23.30;69.80
65406;DHT22;52016;51.228;-2.322;2022-08-16T11:32:56;23.40;69.60
65406;DHT22;52016;51.228;-2.322;2022-08-16T11:36:39;23.40;69.60
65406;DHT22;52016;51.228;-2.322;2022-08-16T11:40:43;23.50;69.50
65406;DHT22;52016;51.228;-2.322;2022-08-16T11:44:33;23.60;69.40
65406;DHT22;52016;51.228;-2.322;2022-08-16T11:48:33;23.80;69.20
65406;DHT22;52016;51.228;-2.322;2022-08-16T11:52:15;23.80;69.10
65406;DHT22;52016;51.228;-2.322;2022-08-16T11:56:02;23.90;69.00
65406;DHT22;52016;51.228;-2.322;2022-08-16T11:59:46;24.00;68.80
65406;DHT22;52016;51.228;-2.322;2022-08-16T12:03:30;24.10;68.40
65406;DHT22;52016;51.228;-2.322;2022-08-16T12:07:16;24.10;68.20
65406;DHT22;52016;51.228;-2.322;2022-08-16T12:10:59;24.00;68.00
65406;DHT22;52016;51.228;-2.322;2022-08-16T12:14:43;24.00;67.90
65406;DHT22;52016;51.228;-2.322;2022-08-16T12:18:26;23.90;67.80
65406;DHT22;52016;51.228;-2.322;2022-08-16T12:22:08;24.10;67.50
65406;DHT22;52016;51.228;-2.322;2022-08-16T12:26:00;24.20;67.20
65406;DHT22;52016;51.228;-2.322;2022-08-16T12:29:49;24.40;66.90
65406;DHT22;52016;51.228;-2.322;2022-08-16T12:33:32;24.60;66.80
65406;DHT22;52016;51.228;-2.322;2022-08-16T12:37:25;25.20;66.60
65406;DHT22;52016;51.228;-2.322;2022-08-16T12:41:08;25.70;65.60
65406;DHT22;52016;51.228;-2.322;2022-08-16T12:44:51;26.20;65.10
65406;DHT22;52016;51.228;-2.322;2022-08-16T12:48:33;26.50;63.60
65406;DHT22;52016;51.228;-2.322;2022-08-16T12:52:35;26.80;63.30
65406;DHT22;52016;51.228;-2.322;2022-08-16T12:56:34;27.40;63.20
65406;DHT22;52016;51.228;-2.322;2022-08-16T13:00:18;28.10;61.80
65406;DHT22;52016;51.228;-2.322;2022-08-16T13:04:13;28.50;62.30
65406;DHT22;52016;51.228;-2.322;2022-08-16T13:08:07;28.60;60.60
65406;DHT22;52016;51.228;-2.322;2022-08-16T13:12:04;28.50;60.00
65406;DHT22;52016;51.228;-2.322;2022-08-16T13:15:59;28.30;59.40
65406;DHT22;52016;51.228;-2.322;2022-08-16T13:19:48;28.10;58.90
65406;DHT22;52016;51.228;-2.322;2022-08-16T13:23:51;27.90;58.30
65406;DHT22;52016;51.228;-2.322;2022-08-16T13:27:36;27.90;58.50
65406;DHT22;52016;51.228;-2.322;2022-08-16T13:31:38;27.80;57.90
65406;DHT22;52016;51.228;-2.322;2022-08-16T13:35:21;27.50;57.60
65406;DHT22;52016;51.228;-2.322;2022-08-16T13:39:05;27.10;56.70
65406;DHT22;52016;51.228;-2.322;2022-08-16T13:42:47;26.50;56.90
65406;DHT22;52016;51.228;-2.322;2022-08-16T13:46:30;25.90;57.90
65406;DHT22;52016;51.228;-2.322;2022-08-16T13:50:15;25.10;58.90
65406;DHT22;52016;51.228;-2.322;2022-08-16T13:53:59;24.30;59.50
65406;DHT22;52016;51.228;-2.322;2022-08-16T13:57:44;23.80;60.30
65406;DHT22;52016;51.228;-2.322;2022-08-16T14:01:51;23.40;61.00
65406;DHT22;52016;51.228;-2.322;2022-08-16T14:05:36;23.10;61.50
65406;DHT22;52016;51.228;-2.322;2022-08-16T14:09:19;22.80;61.60
65406;DHT22;52016;51.228;-2.322;2022-08-16T14:13:01;22.60;62.20
65406;DHT22;52016;51.228;-2.322;2022-08-16T14:16:43;22.50;62.70
65406;DHT22;52016;51.228;-2.322;2022-08-16T14:20:25;22.40;63.10
65406;DHT22;52016;51.228;-2.322;2022-08-16T14:24:07;22.40;63.40
65406;DHT22;52016;51.228;-2.322;2022-08-16T14:28:09;22.30;63.80
65406;DHT22;52016;51.228;-2.322;2022-08-16T14:31:59;22.30;64.10
65406;DHT22;52016;51.228;-2.322;2022-08-16T14:35:45;22.30;64.90
65406;DHT22;52016;51.228;-2.322;2022-08-16T14:39:31;22.20;64.70
65406;DHT22;52016;51.228;-2.322;2022-08-16T14:43:13;22.10;65.10
65406;DHT22;52016;51.228;-2.322;2022-08-16T14:46:56;22.00;65.40
65406;DHT22;52016;51.228;-2.322;2022-08-16T14:50:37;22.00;65.70
65406;DHT22;52016;51.228;-2.322;2022-08-16T14:54:20;22.00;66.00
65406;DHT22;52016;51.228;-2.322;2022-08-16T14:58:07;22.00;66.10
65406;DHT22;52016;51.228;-2.322;2022-08-16T15:02:00;22.10;66.00
65406;DHT22;52016;51.228;-2.322;2022-08-16T15:05:46;22.10;66.10
65406;DHT22;52016;51.228;-2.322;2022-08-16T15:09:28;22.10;66.80
65406;DHT22;52016;51.228;-2.322;2022-08-16T15:13:12;22.00;67.50
65406;DHT22;52016;51.228;-2.322;2022-08-16T15:16:55;21.90;67.00
65406;DHT22;52016;51.228;-2.322;2022-08-16T15:20:37;21.60;66.80
65406;DHT22;52016;51.228;-2.322;2022-08-16T15:24:19;21.40;67.50
65406;DHT22;52016;51.228;-2.322;2022-08-16T15:28:05;21.30;68.30
65406;DHT22;52016;51.228;-2.322;2022-08-16T15:32:05;21.20;68.80
65406;DHT22;52016;51.228;-2.322;2022-08-16T15:35:50;21.20;69.00
65406;DHT22;52016;51.228;-2.322;2022-08-16T15:39:36;21.20;69.10
65406;DHT22;52016;51.228;-2.322;2022-08-16T15:43:20;21.20;69.40
65406;DHT22;52016;51.228;-2.322;2022-08-16T15:47:13;21.30;69.70
65406;DHT22;52016;51.228;-2.322;2022-08-16T15:51:05;21.30;69.90
65406;DHT22;52016;51.228;-2.322;2022-08-16T15:54:50;21.30;71.20
65406;DHT22;52016;51.228;-2.322;2022-08-16T15:58:34;21.30;70.40
65406;DHT22;52016;51.228;-2.322;2022-08-16T16:02:20;21.20;70.60
65406;DHT22;52016;51.228;-2.322;2022-08-16T16:06:11;21.20;71.00
65406;DHT22;52016;51.228;-2.322;2022-08-16T16:09:59;21.20;71.30
65406;DHT22;52016;51.228;-2.322;2022-08-16T16:13:41;21.20;71.40
65406;DHT22;52016;51.228;-2.322;2022-08-16T16:17:24;21.20;71.60
65406;DHT22;52016;51.228;-2.322;2022-08-16T16:21:10;21.10;71.70
65406;DHT22;52016;51.228;-2.322;2022-08-16T16:25:01;21.10;71.90
65406;DHT22;52016;51.228;-2.322;2022-08-16T16:28:45;21.00;72.10
65406;DHT22;52016;51.228;-2.322;2022-08-16T16:32:47;20.90;72.30
65406;DHT22;52016;51.228;-2.322;2022-08-16T16:36:32;20.90;72.50
65406;DHT22;52016;51.228;-2.322;2022-08-16T16:40:14;20.90;72.60
65406;DHT22;52016;51.228;-2.322;2022-08-16T16:44:13;20.80;72.90
65406;DHT22;52016;51.228;-2.322;2022-08-16T16:48:12;20.70;73.10
65406;DHT22;52016;51.228;-2.322;2022-08-16T16:51:57;20.70;73.20
65406;DHT22;52016;51.228;-2.322;2022-08-16T16:55:47;20.70;73.20
65406;DHT22;52016;51.228;-2.322;2022-08-16T16:59:33;20.70;73.30
65406;DHT22;52016;51.228;-2.322;2022-08-16T17:03:15;20.70;73.30
65406;DHT22;52016;51.228;-2.322;2022-08-16T17:07:00;20.70;73.50
65406;DHT22;52016;51.228;-2.322;2022-08-16T17:10:42;20.70;73.50
65406;DHT22;52016;51.228;-2.322;2022-08-16T17:14:29;20.80;73.50
65406;DHT22;52016;51.228;-2.322;2022-08-16T17:18:14;20.80;73.40
65406;DHT22;52016;51.228;-2.322;2022-08-16T17:22:18;20.90;73.40
65406;DHT22;52016;51.228;-2.322;2022-08-16T17:26:00;20.90;73.50
65406;DHT22;52016;51.228;-2.322;2022-08-16T17:29:51;20.90;73.60
65406;DHT22;52016;51.228;-2.322;2022-08-16T17:33:35;20.90;73.70
65406;DHT22;52016;51.228;-2.322;2022-08-16T17:37:36;20.90;73.80
65406;DHT22;52016;51.228;-2.322;2022-08-16T17:41:33;20.90;73.80
65406;DHT22;52016;51.228;-2.322;2022-08-16T17:45:15;20.90;73.90
65406;DHT22;52016;51.228;-2.322;2022-08-16T17:48:56;21.00;73.90
65406;DHT22;52016;51.228;-2.322;2022-08-16T17:52:38;21.00;74.00
65406;DHT22;52016;51.228;-2.322;2022-08-16T17:56:30;21.00;74.20
65406;DHT22;52016;51.228;-2.322;2022-08-16T18:00:12;21.00;74.30
65406;DHT22;52016;51.228;-2.322;2022-08-16T18:04:00;21.10;74.20
65406;DHT22;52016;51.228;-2.322;2022-08-16T18:07:50;21.10;74.30
65406;DHT22;52016;51.228;-2.322;2022-08-16T18:11:34;21.10;74.30
65406;DHT22;52016;51.228;-2.322;2022-08-16T18:15:23;21.20;74.30
65406;DHT22;52016;51.228;-2.322;2022-08-16T18:19:05;21.30;74.10
65406;DHT22;52016;51.228;-2.322;2022-08-16T18:22:47;21.20;74.20
65406;DHT22;52016;51.228;-2.322;2022-08-16T18:26:29;21.20;74.20
65406;DHT22;52016;51.228;-2.322;2022-08-16T18:30:12;21.20;74.30
65406;DHT22;52016;51.228;-2.322;2022-08-16T18:33:58;21.10;74.30
65406;DHT22;52016;51.228;-2.322;2022-08-16T18:37:40;21.00;74.30
65406;DHT22;52016;51.228;-2.322;2022-08-16T18:41:24;20.90;74.40
65406;DHT22;52016;51.228;-2.322;2022-08-16T18:45:07;20.90;74.50
65406;DHT22;52016;51.228;-2.322;2022-08-16T18:48:50;20.90;74.40
65406;DHT22;52016;51.228;-2.322;2022-08-16T18:52:31;20.80;74.40
65406;DHT22;52016;51.228;-2.322;2022-08-16T18:56:13;20.70;74.50
65406;DHT22;52016;51.228;-2.322;2022-08-16T18:59:55;20.60;74.70
65406;DHT22;52016;51.228;-2.322;2022-08-16T19:03:37;20.60;74.70
65406;DHT22;52016;51.228;-2.322;2022-08-16T19:07:19;20.60;74.70
65406;DHT22;52016;51.228;-2.322;2022-08-16T19:11:02;20.50;74.70
65406;DHT22;52016;51.228;-2.322;2022-08-16T19:14:44;20.50;74.80
65406;DHT22;52016;51.228;-2.322;2022-08-16T19:18:28;20.40;74.90
65406;DHT22;52016;51.228;-2.322;2022-08-16T19:22:29;20.40;75.10
65406;DHT22;52016;51.228;-2.322;2022-08-16T19:26:31;20.40;75.70
65406;DHT22;52016;51.228;-2.322;2022-08-16T19:30:14;20.40;75.00
65406;DHT22;52016;51.228;-2.322;2022-08-16T19:33:57;20.40;75.20
65406;DHT22;52016;51.228;-2.322;2022-08-16T19:37:39;20.30;75.20
65406;DHT22;52016;51.228;-2.322;2022-08-16T19:41:27;20.30;75.40
65406;DHT22;52016;51.228;-2.322;2022-08-16T19:45:14;20.40;75.50
65406;DHT22;52016;51.228;-2.322;2022-08-16T19:48:57;20.40;75.60
65406;DHT22;52016;51.228;-2.322;2022-08-16T19:52:39;20.40;75.50
65406;DHT22;52016;51.228;-2.322;2022-08-16T19:56:21;20.40;75.50
65406;DHT22;52016;51.228;-2.322;2022-08-16T20:00:08;20.40;75.50
65406;DHT22;52016;51.228;-2.322;2022-08-16T20:03:57;20.30;75.70
65406;DHT22;52016;51.228;-2.322;2022-08-16T20:07:39;20.20;75.70
65406;DHT22;52016;51.228;-2.322;2022-08-16T20:11:21;20.20;75.80
65406;DHT22;52016;51.228;-2.322;2022-08-16T20:15:09;20.10;75.80
65406;DHT22;52016;51.228;-2.322;2022-08-16T20:18:53;20.10;76.00
65406;DHT22;52016;51.228;-2.322;2022-08-16T20:22:34;20.10;75.70
65406;DHT22;52016;51.228;-2.322;2022-08-16T20:26:34;20.00;75.80
65406;DHT22;52016;51.228;-2.322;2022-08-16T20:30:16;20.10;75.80
65406;DHT22;52016;51.228;-2.322;2022-08-16T20:33:58;20.10;75.80
65406;DHT22;52016;51.228;-2.322;2022-08-16T20:37:40;20.10;75.70
65406;DHT22;52016;51.228;-2.322;2022-08-16T20:41:23;20.10;75.60
65406;DHT22;52016;51.228;-2.322;2022-08-16T20:45:06;20.20;75.50
65406;DHT22;52016;51.228;-2.322;2022-08-16T20:48:49;20.20;75.40
65406;DHT22;52016;51.228;-2.322;2022-08-16T20:52:30;20.10;75.40
65406;DHT22;52016;51.228;-2.322;2022-08-16T20:56:12;20.10;75.40
65406;DHT22;52016;51.228;-2.322;2022-08-16T20:59:54;20.10;75.50
65406;DHT22;52016;51.228;-2.322;2022-08-16T21:03:36;20.10;75.40
65406;DHT22;52016;51.228;-2.322;2022-08-16T21:07:18;20.10;75.30
65406;DHT22;52016;51.228;-2.322;2022-08-16T21:11:03;20.20;75.30
65406;DHT22;52016;51.228;-2.322;2022-08-16T21:14:45;20.20;75.20
65406;DHT22;52016;51.228;-2.322;2022-08-16T21:18:28;20.20;75.10
65406;DHT22;52016;51.228;-2.322;2022-08-16T21:22:20;20.10;75.10
65406;DHT22;52016;51.228;-2.322;2022-08-16T21:26:03;20.00;75.60
65406;DHT22;52016;51.228;-2.322;2022-08-16T21:29:51;20.00;75.20
65406;DHT22;52016;51.228;-2.322;2022-08-16T21:33:36;19.90;75.20
65406;DHT22;52016;51.228;-2.322;2022-08-16T21:37:18;19.90;75.30
65406;DHT22;52016;51.228;-2.322;2022-08-16T21:41:02;19.90;75.30
65406;DHT22;52016;51.228;-2.322;2022-08-16T21:44:44;19.90;75.30
65406;DHT22;52016;51.228;-2.322;2022-08-16T21:48:27;19.90;75.30
65406;DHT22;52016;51.228;-2.322;2022-08-16T21:52:19;19.80;75.30
65406;DHT22;52016;51.228;-2.322;2022-08-16T21:56:08;19.80;75.40
65406;DHT22;52016;51.228;-2.322;2022-08-16T21:59:57;19.80;75.30
65406;DHT22;52016;51.228;-2.322;2022-08-16T22:03:39;19.80;75.20
65406;DHT22;52016;51.228;-2.322;2022-08-16T22:07:21;19.70;75.30
65406;DHT22;52016;51.228;-2.322;2022-08-16T22:11:03;19.70;75.20
65406;DHT22;52016;51.228;-2.322;2022-08-16T22:14:50;19.60;75.30
65406;DHT22;52016;51.228;-2.322;2022-08-16T22:18:32;19.70;75.30
65406;DHT22;52016;51.228;-2.322;2022-08-16T22:22:14;19.60;75.30
65406;DHT22;52016;51.228;-2.322;2022-08-16T22:25:56;19.70;75.30
65406;DHT22;52016;51.228;-2.322;2022-08-16T22:29:39;19.70;75.30
65406;DHT22;52016;51.228;-2.322;2022-08-16T22:33:25;19.70;75.30
65406;DHT22;52016;51.228;-2.322;2022-08-16T22:37:07;19.80;75.30
65406;DHT22;52016;51.228;-2.322;2022-08-16T22:40:49;19.70;75.30
65406;DHT22;52016;51.228;-2.322;2022-08-16T22:44:31;19.80;75.40
65406;DHT22;52016;51.228;-2.322;2022-08-16T22:48:14;19.70;75.40
65406;DHT22;52016;51.228;-2.322;2022-08-16T22:52:04;19.80;75.50
65406;DHT22;52016;51.228;-2.322;2022-08-16T22:55:47;19.80;75.90
65406;DHT22;52016;51.228;-2.322;2022-08-16T22:59:30;19.80;75.40
65406;DHT22;52016;51.228;-2.322;2022-08-16T23:03:14;19.80;75.40
65406;DHT22;52016;51.228;-2.322;2022-08-16T23:06:59;19.80;75.50
65406;DHT22;52016;51.228;-2.322;2022-08-16T23:10:44;19.80;75.50
65406;DHT22;52016;51.228;-2.322;2022-08-16T23:14:26;19.80;75.40
65406;DHT22;52016;51.228;-2.322;2022-08-16T23:18:09;19.80;75.40
65406;DHT22;52016;51.228;-2.322;2022-08-16T23:21:51;19.80;75.50
65406;DHT22;52016;51.228;-2.322;2022-08-16T23:25:39;19.70;75.50
65406;DHT22;52016;51.228;-2.322;2022-08-16T23:29:21;19.70;75.80
65406;DHT22;52016;51.228;-2.322;2022-08-16T23:33:08;19.70;75.60
65406;DHT22;52016;51.228;-2.322;2022-08-16T23:36:50;19.70;75.60